Time;durP1;ratioP1;P1;durP2;ratioP2;P2;SDS_P1;SDS_P2;PMS_P1;PMS_P2;Temp;Humidity;BMP_temperature;BMP_pressure;BME280_temperature;BME280_humidity;BME280_pressure;Samples;Min_cycle;Max_cycle;Signal;HPM_P1;HPM_P2
2022/05/07 00:00:14;;;;;;;1.58;1.02;;;;;;;13.05;100.00;101598.56;5068940;28;20036;-79
2022/05/07 00:02:47;;;;;;;2.05;1.20;;;;;;;13.05;100.00;101582.16;5045334;28;20045;-78
2022/05/07 00:05:20;;;;;;;2.15;1.25;;;;;;;12.97;100.00;101597.22;5066068;28;20769;-79
2022/05/07 00:07:54;;;;;;;2.35;1.20;;;;;;;13.02;100.00;101583.56;5045741;28;20048;-79
2022/05/07 00:10:24;;;;;;;2.15;1.30;;;;;;;12.97;100.00;101589.03;5088905;28;20473;-78
2022/05/07 00:12:57;;;;;;;1.20;1.10;;;;;;;12.88;100.00;101586.00;5074391;28;20049;-79
2022/05/07 00:15:30;;;;;;;1.45;1.10;;;;;;;12.79;100.00;101584.06;5067680;28;20115;-79
2022/05/07 00:18:05;;;;;;;1.38;1.10;;;;;;;12.75;100.00;101576.44;5065681;28;20049;-79
2022/05/07 00:20:38;;;;;;;1.48;1.23;;;;;;;12.78;100.00;101587.94;5049051;28;20048;-78
2022/05/07 00:23:08;;;;;;;1.25;1.15;;;;;;;12.86;100.00;101584.66;5047743;28;20045;-79
2022/05/07 00:25:42;;;;;;;1.30;1.13;;;;;;;12.90;100.00;101586.56;5073256;28;20508;-79
2022/05/07 00:28:15;;;;;;;1.30;1.20;;;;;;;12.90;100.00;101577.53;5063599;28;20040;-79
2022/05/07 00:30:48;;;;;;;1.63;1.10;;;;;;;12.98;100.00;101584.34;5040556;28;20397;-79
2022/05/07 00:33:22;;;;;;;1.20;1.10;;;;;;;12.98;100.00;101574.28;5061428;28;20393;-78
2022/05/07 00:35:55;;;;;;;1.20;1.10;;;;;;;12.94;100.00;101573.19;5065400;28;20037;-79
2022/05/07 00:38:28;;;;;;;1.30;1.20;;;;;;;12.95;100.00;101580.25;5069129;28;20052;-79
2022/05/07 00:40:59;;;;;;;1.10;1.00;;;;;;;12.97;100.00;101577.25;5059631;28;20045;-79
2022/05/07 00:43:36;;;;;;;1.30;1.20;;;;;;;13.01;100.00;101575.59;5062962;28;20033;-78
2022/05/07 00:46:10;;;;;;;2.40;1.40;;;;;;;12.93;100.00;101571.53;5048184;28;20429;-79
2022/05/07 00:48:39;;;;;;;1.20;1.10;;;;;;;12.86;100.00;101577.25;5064116;28;20040;-79
2022/05/07 00:54:05;;;;;;;2.65;1.30;;;;;;;12.77;100.00;101554.31;5068052;28;20036;-79
2022/05/07 00:56:36;;;;;;;1.35;1.25;;;;;;;12.90;100.00;101570.16;5045187;28;20127;-79
2022/05/07 00:59:11;;;;;;;1.42;1.20;;;;;;;12.88;100.00;101572.34;5048509;28;20067;-79
2022/05/07 01:01:44;;;;;;;1.58;1.30;;;;;;;12.93;100.00;101566.88;5045501;28;20053;-79
2022/05/07 01:04:17;;;;;;;1.30;1.20;;;;;;;12.91;100.00;101570.97;5043024;28;20425;-78
2022/05/07 01:06:51;;;;;;;1.60;1.38;;;;;;;12.90;100.00;101561.16;5071419;28;20481;-79
2022/05/07 01:09:20;;;;;;;1.75;1.30;;;;;;;12.92;100.00;101567.16;5052617;28;20477;-79
2022/05/07 01:11:56;;;;;;;1.40;1.30;;;;;;;12.80;100.00;101567.44;5056136;28;20055;-78
2022/05/07 01:14:29;;;;;;;1.90;1.20;;;;;;;12.80;100.00;101572.91;5046583;28;20067;-79
2022/05/07 01:16:58;;;;;;;1.50;1.40;;;;;;;12.84;100.00;101570.44;5047752;28;20052;-79
2022/05/07 01:19:26;;;;;;;1.85;1.50;;;;;;;12.81;100.00;101565.53;5043251;28;20489;-79
2022/05/07 01:22:02;;;;;;;1.65;1.45;;;;;;;12.80;100.00;101561.97;5045596;28;20056;-79
2022/05/07 01:24:35;;;;;;;1.40;1.30;;;;;;;12.78;100.00;101561.41;5046527;28;20049;-78
2022/05/07 01:27:08;;;;;;;2.25;1.42;;;;;;;12.79;100.00;101565.78;5050399;28;20515;-79
2022/05/07 01:29:42;;;;;;;1.40;1.30;;;;;;;12.75;100.00;101565.50;5052346;28;20408;-78
2022/05/07 01:32:16;;;;;;;2.17;1.38;;;;;;;12.67;100.00;101555.13;5044161;28;20045;-78
2022/05/07 01:34:51;;;;;;;1.58;1.40;;;;;;;12.71;100.00;101556.22;5047109;28;20044;-78
2022/05/07 01:37:26;;;;;;;2.05;1.35;;;;;;;12.69;100.00;101554.84;5047150;28;20049;-78
2022/05/07 01:40:00;;;;;;;1.55;1.45;;;;;;;12.65;100.00;101557.34;5047395;28;20532;-78
2022/05/07 01:42:34;;;;;;;2.00;1.55;;;;;;;12.58;100.00;101554.03;5046237;28;20052;-79
2022/05/07 01:45:10;;;;;;;1.60;1.50;;;;;;;12.53;100.00;101554.84;5043489;28;20045;-79
2022/05/07 01:50:39;;;;;;;1.80;1.60;;;;;;;12.45;100.00;101552.66;5040968;28;20401;-78
2022/05/07 01:53:18;;;;;;;1.70;1.42;;;;;;;12.44;100.00;101555.66;5048846;28;20040;-79
2022/05/07 01:55:53;;;;;;;2.78;1.70;;;;;;;12.39;100.00;101564.66;5060127;28;20040;-79
2022/05/07 01:58:37;;;;;;;4.90;1.70;;;;;;;12.30;100.00;101553.44;5043535;28;20058;-79
2022/05/07 02:01:12;;;;;;;1.58;1.48;;;;;;;12.34;100.00;101562.72;5042375;28;20044;-78
2022/05/07 02:03:41;;;;;;;1.60;1.50;;;;;;;12.32;100.00;101564.94;5073152;28;20036;-79
2022/05/07 02:06:19;;;;;;;2.42;1.70;;;;;;;12.30;100.00;101567.09;5051704;28;20060;-78
2022/05/07 02:08:54;;;;;;;2.28;1.60;;;;;;;12.20;100.00;101564.34;5040890;28;20045;-79
2022/05/07 02:11:32;;;;;;;3.13;1.92;;;;;;;12.19;100.00;101562.69;5049810;28;20493;-78
2022/05/07 02:14:00;;;;;;;1.90;1.70;;;;;;;12.16;100.00;101563.25;5056278;28;20036;-79
2022/05/07 02:16:34;;;;;;;2.67;1.98;;;;;;;12.19;100.00;101566.28;5086197;28;20142;-79
2022/05/07 02:19:03;;;;;;;2.53;2.03;;;;;;;12.13;100.00;101558.34;5039547;28;20501;-78
2022/05/07 02:21:36;;;;;;;2.47;1.83;;;;;;;12.12;100.00;101559.41;5045300;28;20055;-78
2022/05/07 02:24:07;;;;;;;3.53;2.10;;;;;;;12.10;100.00;101558.84;5045554;28;20048;-78
2022/05/07 02:26:35;;;;;;;3.08;2.13;;;;;;;12.08;100.00;101551.78;5043334;28;20060;-79
2022/05/07 02:29:09;;;;;;;3.00;2.30;;;;;;;12.03;100.00;101562.66;5040525;28;20056;-78
2022/05/07 02:32:03;;;;;;;3.53;2.38;;;;;;;11.97;100.00;101568.38;5066087;28;20429;-78
2022/05/07 02:34:41;;;;;;;3.58;2.25;;;;;;;11.81;100.00;101551.09;5038231;28;20053;-79
2022/05/07 02:37:18;;;;;;;3.10;2.40;;;;;;;11.81;100.00;101564.75;5051012;28;20052;-79
2022/05/07 02:39:55;;;;;;;3.10;2.50;;;;;;;11.70;100.00;101559.22;5051474;28;20048;-79
2022/05/07 02:42:39;;;;;;;3.35;2.72;;;;;;;11.65;100.00;101564.66;5046826;28;20154;-78
2022/05/07 02:45:17;;;;;;;2.83;2.38;;;;;;;11.65;100.00;101559.19;5047126;28;20048;-78
2022/05/07 02:47:56;;;;;;;3.45;2.40;;;;;;;11.57;100.00;101559.69;5042860;28;20067;-78
2022/05/07 02:50:25;;;;;;;4.13;2.88;;;;;;;11.48;100.00;101567.56;5063573;28;20056;-78
2022/05/07 02:52:58;;;;;;;3.05;2.63;;;;;;;11.38;100.00;101567.53;5047604;28;20041;-79
2022/05/07 02:55:34;;;;;;;3.53;2.60;;;;;;;11.37;100.00;101561.25;5053724;28;20051;-78
2022/05/07 02:58:06;;;;;;;;;;;;;;;11.34;100.00;101561.78;5051959;28;20144;-78
2022/05/07 03:00:35;;;;;;;;;;;;;;;11.33;100.00;101560.13;5072562;28;19935;-78
2022/05/07 03:03:08;;;;;;;;;;;;;;;11.31;100.00;101562.31;5048705;28;19932;-79
2022/05/07 03:05:41;;;;;;;;;;;;;;;11.27;100.00;101561.19;5046499;28;20253;-79
2022/05/07 03:08:10;;;;;;;;;;;;;;;11.29;100.00;101564.44;5054392;28;20296;-79
2022/05/07 03:10:39;;;;;;;;;;;;;;;11.25;100.00;101566.06;5046292;28;19921;-78
2022/05/07 03:13:12;;;;;;;;;;;;;;;11.18;100.00;101560.84;5043893;28;19924;-79
2022/05/07 03:15:45;;;;;;;;;;;;;;;11.11;100.00;101565.69;5046441;28;19924;-79
2022/05/07 03:18:15;;;;;;;;;;;;;;;11.11;100.00;101554.00;5074963;28;19925;-78
2022/05/07 03:20:43;;;;;;;;;;;;;;;10.99;100.00;101557.72;5042034;28;19943;-79
2022/05/07 03:23:20;;;;;;;;;;;;;;;10.95;100.00;101561.22;5047132;28;19928;-78
2022/05/07 03:25:52;;;;;;;;;;;;;;;10.80;100.00;101562.75;5056659;28;19920;-78
2022/05/07 03:28:25;;;;;;;;;;;;;;;10.76;100.00;101560.78;5083092;28;19925;-78
2022/05/07 03:30:59;;;;;;;;;;;;;;;10.71;100.00;101565.09;5051096;28;19928;-78
2022/05/07 03:33:32;;;;;;;;;;;;;;;10.69;100.00;101567.28;5080761;28;19927;-78
2022/05/07 03:36:06;;;;;;;;;;;;;;;10.71;100.00;101553.41;5058973;28;19925;-78
2022/05/07 03:38:39;;;;;;;;;;;;;;;10.65;100.00;101560.72;5063318;28;19931;-79
2022/05/07 03:41:19;;;;;;;;;;;;;;;10.65;100.00;101563.44;5051986;28;19928;-79
2022/05/07 03:43:52;;;;;;;;;;;;;;;10.67;100.00;101563.16;5040905;28;19921;-78
2022/05/07 03:46:24;;;;;;;;;;;;;;;10.67;100.00;101555.81;5070306;28;19921;-79
2022/05/07 03:49:00;;;;;;;;;;;;;;;10.68;100.00;101567.53;5064823;28;19928;-78
2022/05/07 03:54:26;;;;;;;;;;;;;;;10.83;100.00;101559.50;5048143;28;19936;-78
2022/05/07 03:57:00;;;;;;;;;;;;;;;10.92;100.00;101559.84;5045174;28;19924;-78
2022/05/07 03:59:36;;;;;;;;;;;;;;;10.94;100.00;101568.56;5049144;28;20365;-78
2022/05/07 04:02:05;;;;;;;;;;;;;;;10.95;100.00;101559.34;5043748;28;19920;-78
2022/05/07 04:04:47;;;;;;;;;;;;;;;10.95;100.00;101564.78;5056270;28;19928;-78
2022/05/07 04:07:16;;;;;;;;;;;;;;;11.03;100.00;101561.56;5080127;28;19932;-78
2022/05/07 04:10:00;;;;;;;;;;;;;;;11.08;100.00;101562.69;5052785;28;19924;-79
2022/05/07 04:12:38;;;;;;;;;;;;;;;11.08;100.00;101559.97;5078961;28;19931;-79
2022/05/07 04:15:11;;;;;;;;;;;;;;;11.28;100.00;101562.00;5065924;28;19940;-79
2022/05/07 04:17:39;;;;;;;;;;;;;;;11.27;100.00;101563.06;5050794;28;20636;-78
2022/05/07 04:20:12;;;;;;;;;;;;;;;11.28;100.00;101564.72;5046965;28;20393;-78
2022/05/07 04:22:49;;;;;;;;;;;;;;;11.34;100.00;101560.97;5052710;28;20396;-79
2022/05/07 04:25:23;;;;;;;;;;;;;;;11.39;100.00;101564.53;5052675;28;19922;-78
2022/05/07 04:27:58;;;;;;;;;;;;;;;11.44;100.00;101573.81;5049357;28;20277;-78
2022/05/07 04:30:31;;;;;;;;;;;;;;;11.49;100.00;101568.38;5045402;28;20352;-78
2022/05/07 04:33:05;;;;;;;;;;;;;;;11.46;100.00;101569.75;5063252;28;19931;-78
2022/05/07 04:35:38;;;;;;;;;;;;;;;11.50;100.00;101567.31;5043264;28;19935;-78
2022/05/07 04:38:12;;;;;;;;;;;;;;;11.49;100.00;101571.09;5047880;28;19928;-78
2022/05/07 04:40:41;;;;;;;;;;;;;;;11.60;100.00;101569.25;5051115;28;19931;-78
2022/05/07 04:43:21;;;;;;;;;;;;;;;11.58;100.00;101572.25;5048589;28;19943;-78
2022/05/07 04:45:54;;;;;;;;;;;;;;;11.62;100.00;101575.28;5044270;28;20373;-78
2022/05/07 04:48:29;;;;;;;;;;;;;;;11.56;100.00;101574.44;5045790;28;19928;-78
2022/05/07 04:51:04;;;;;;;;;;;;;;;11.55;100.00;101580.97;5084724;28;19920;-78
2022/05/07 04:53:40;;;;;;;;;;;;;;;11.47;100.00;101581.47;5049300;28;19920;-78
2022/05/07 04:56:22;;;;;;;;;;;;;;;11.66;100.00;101577.22;5053620;28;19924;-79
2022/05/07 04:59:00;;;;;;;;;;;;;;;11.76;100.00;101573.69;5045178;28;19924;-79
2022/05/07 05:01:44;;;;;;;;;;;;;;;12.02;100.00;101573.84;5047636;28;19920;-78
2022/05/07 05:04:20;;;;;;;;;;;;;;;12.51;100.00;101575.31;5053056;28;19927;-78
2022/05/07 05:06:50;;;;;;;;;;;;;;;13.08;100.00;101576.97;5055245;28;19950;-79
2022/05/07 05:09:31;;;;;;;;;;;;;;;13.26;100.00;101572.06;5090122;28;19927;-78
2022/05/07 05:12:10;;;;;;;;;;;;;;;13.40;100.00;101573.13;5043300;28;19931;-79
2022/05/07 05:15:03;;;;;;;;;;;;;;;13.44;100.00;101571.47;5046271;28;19921;-79
2022/05/07 05:17:50;;;;;;;;;;;;;;;13.24;100.00;101583.25;5065460;28;19921;-79
2022/05/07 05:20:20;;;;;;;;;;;;;;;13.07;100.00;101588.19;5066512;28;19931;-79
2022/05/07 05:22:57;;;;;;;;;;;;;;;13.16;100.00;101585.72;5052581;28;20416;-78
2022/05/07 05:25:32;;;;;;;;;;;;;;;13.23;100.00;101580.78;5049857;28;20327;-79
2022/05/07 05:28:02;;;;;;;;;;;;;;;13.43;100.00;101586.25;5046624;28;19921;-78
2022/05/07 05:30:32;;;;;;;;;;;;;;;13.43;100.00;101588.97;5080818;28;19928;-80
2022/05/07 05:33:09;;;;;;;;;;;;;;;13.39;100.00;101589.81;5078520;28;19924;-80
2022/05/07 05:35:49;;;;;;;;;;;;;;;13.50;100.00;101585.94;5054697;28;19931;-79
2022/05/07 05:38:26;;;;;;;;;;;;;;;13.74;100.00;101591.63;5048246;28;19925;-78
2022/05/07 05:40:54;;;;;;;;;;;;;;;13.58;100.00;101590.84;5054088;28;20305;-79
2022/05/07 05:43:27;;;;;;;;;;;;;;;13.47;100.00;101602.13;5038066;28;19928;-79
2022/05/07 05:46:01;;;;;;;;;;;;;;;13.64;100.00;101601.78;5043491;28;19936;-79
2022/05/07 05:48:35;;;;;;;;;;;;;;;13.94;100.00;101598.94;5049300;28;19931;-79
2022/05/07 05:51:08;;;;;;;;;;;;;;;14.21;100.00;101605.94;5046124;28;19921;-80
2022/05/07 05:53:45;;;;;;;;;;;;;;;14.01;100.00;101600.56;5081749;28;19931;-79
2022/05/07 05:56:18;;;;;;;;;;;;;;;13.93;100.00;101599.22;5058921;28;20400;-79
2022/05/07 05:58:55;;;;;;;;;;;;;;;13.81;100.00;101598.72;5052913;28;19924;-79
2022/05/07 06:01:35;;;;;;;;;;;;;;;13.76;100.00;101610.50;5058697;28;20369;-79
2022/05/07 06:04:14;;;;;;;;;;;;;;;13.76;100.00;101611.31;5047825;28;20373;-78
2022/05/07 06:06:42;;;;;;;;;;;;;;;13.75;100.00;101611.59;5047334;28;19924;-78
2022/05/07 06:09:15;;;;;;;;;;;;;;;13.73;100.00;101617.34;5070192;28;20384;-79
2022/05/07 06:11:48;;;;;;;;;;;;;;;13.75;100.00;101614.34;5065503;28;19921;-80
2022/05/07 06:14:21;;;;;;;;;;;;;;;13.87;100.00;101609.38;5075954;28;19920;-79
2022/05/07 06:17:00;;;;;;;;;;;;;;;13.84;100.00;101611.88;5039847;28;19921;-79
2022/05/07 06:19:33;;;;;;;;;;;;;;;13.78;100.00;101614.59;5061943;28;19944;-79
2022/05/07 06:22:06;;;;;;;;;;;;;;;13.68;100.00;101616.56;5048576;28;19928;-78
2022/05/07 06:27:48;;;;;;;;;;;;;;;13.69;100.00;101612.72;5046218;28;19924;-78
2022/05/07 06:30:27;;;;;;;;;;;;;;;13.67;100.00;101621.22;5048248;28;19933;-80
2022/05/07 06:33:01;;;;;;;;;;;;;;;13.63;100.00;101627.50;5044934;28;19931;-78
2022/05/07 06:35:43;;;;;;;;;;;;;;;13.71;100.00;101630.50;5046599;28;19929;-79
2022/05/07 06:38:22;;;;;;;;;;;;;;;13.74;100.00;101629.94;5065459;28;19920;-79
2022/05/07 06:40:56;;;;;;;;;;;;;;;13.72;100.00;101629.38;5050989;28;19931;-79
2022/05/07 06:43:30;;;;;;;;;;;;;;;13.83;100.00;101632.09;5052049;28;19982;-78
2022/05/07 06:46:03;;;;;;;;;;;;;;;13.95;100.00;101629.88;5062857;28;19932;-80
2022/05/07 06:48:45;;;;;;;;;;;;;;;13.97;100.00;101635.88;5055273;28;20274;-79
2022/05/07 06:51:35;;;;;;;;;;;;;;;13.94;100.00;101639.19;5044627;28;20447;-79
2022/05/07 06:54:08;;;;;;;5.13;3.70;;;;;;;13.92;100.00;101636.72;5060707;28;19924;-80
2022/05/07 06:56:41;;;;;;;5.45;4.05;;;;;;;13.83;100.00;101637.56;5049401;28;20056;-79
2022/05/07 06:59:14;;;;;;;5.63;4.05;;;;;;;14.07;100.00;101635.00;5051993;28;20044;-79
2022/05/07 07:01:43;;;;;;;5.15;4.20;;;;;;;14.45;100.00;101638.13;5049562;28;20052;-78
2022/05/07 07:04:17;;;;;;;4.82;4.00;;;;;;;14.90;100.00;101638.13;5058638;28;20041;-77
2022/05/07 07:06:50;;;;;;;4.93;3.80;;;;;;;15.28;100.00;101636.44;5072310;28;20056;-79
2022/05/07 07:09:24;;;;;;;5.22;3.70;;;;;;;15.23;100.00;101636.50;5070323;28;20477;-80
2022/05/07 07:11:52;;;;;;;4.68;3.53;;;;;;;15.28;100.00;101638.38;5073168;28;20045;-80
2022/05/07 07:14:25;;;;;;;5.20;3.50;;;;;;;15.01;100.00;101641.63;5066400;28;20484;-79
2022/05/07 07:16:58;;;;;;;5.07;3.28;;;;;;;15.05;100.00;101642.69;5048116;28;20504;-79
2022/05/07 07:19:34;;;;;;;5.43;2.92;;;;;;;14.92;100.00;101642.22;5049249;28;20131;-80
2022/05/07 07:22:03;;;;;;;4.78;3.15;;;;;;;15.02;100.00;101646.00;5065488;28;20067;-80
2022/05/07 07:24:36;;;;;;;5.28;3.25;;;;;;;15.04;100.00;101641.88;5055692;28;20049;-79
2022/05/07 07:27:05;;;;;;;4.13;3.00;;;;;;;15.01;100.00;101647.94;5047732;28;20049;-79
2022/05/07 07:29:38;;;;;;;4.22;2.70;;;;;;;15.18;100.00;101641.19;5046265;28;20052;-79
2022/05/07 07:32:12;;;;;;;3.60;2.50;;;;;;;15.38;100.00;101640.19;5049148;28;20055;-79
2022/05/07 07:34:47;;;;;;;3.65;2.42;;;;;;;15.47;100.00;101643.97;5061458;28;20044;-79
2022/05/07 07:37:20;;;;;;;3.10;2.30;;;;;;;15.67;100.00;101636.63;5042666;28;20076;-79
2022/05/07 07:39:54;;;;;;;3.65;2.55;;;;;;;15.42;100.00;101642.06;5063343;28;20040;-79
2022/05/07 07:42:23;;;;;;;3.00;2.30;;;;;;;15.61;100.00;101631.19;5041903;28;20052;-79
2022/05/07 07:47:59;;;;;;;3.90;2.40;;;;;;;15.61;100.00;101633.13;5063698;28;20051;-77
2022/05/07 07:50:31;;;;;;;3.70;2.50;;;;;;;15.43;100.00;101626.44;5062755;28;20045;-80
2022/05/07 07:53:06;;;;;;;4.65;2.65;;;;;;;15.55;100.00;101632.34;5042900;28;20048;-79
2022/05/07 07:55:36;;;;;;;3.13;2.10;;;;;;;15.73;100.00;101643.69;5057678;28;20048;-79
2022/05/07 07:58:11;;;;;;;3.53;2.10;;;;;;;15.54;100.00;101643.63;5035283;28;20414;-80
2022/05/07 08:00:44;;;;;;;2.95;2.10;;;;;;;15.74;100.00;101648.91;5039106;28;20078;-79
2022/05/07 08:03:19;;;;;;;3.28;1.88;;;;;;;15.88;100.00;101653.69;5054060;28;20083;-80
2022/05/07 08:05:54;;;;;;;3.03;1.85;;;;;;;15.94;100.00;101656.09;5031130;28;20052;-79
2022/05/07 08:14:00;;;;;;;2.95;1.70;;;;;;;16.02;100.00;101659.31;5024180;28;20908;-80
2022/05/07 08:16:29;;;;;;;4.90;2.05;;;;;;;15.86;100.00;101655.94;5032683;28;20059;-79
2022/05/07 08:19:03;;;;;;;4.57;1.92;;;;;;;16.01;100.00;101655.75;5047691;28;20049;-80
2022/05/07 08:21:37;;;;;;;4.00;1.83;;;;;;;16.24;100.00;101656.00;5071136;28;20063;-79
2022/05/07 08:24:11;;;;;;;4.60;1.90;;;;;;;16.33;100.00;101657.81;5049710;28;20055;-80
2022/05/07 08:26:44;;;;;;;3.22;1.90;;;;;;;16.59;100.00;101654.72;5029953;28;20056;-81
2022/05/07 08:29:17;;;;;;;2.42;1.42;;;;;;;16.52;100.00;101648.78;5036866;28;20048;-79
2022/05/07 08:31:51;;;;;;;2.47;1.50;;;;;;;16.44;100.00;101650.25;5050517;28;20064;-80
2022/05/07 08:34:19;;;;;;;2.97;1.75;;;;;;;16.49;100.00;101652.13;5060164;28;20056;-80
2022/05/07 08:36:48;;;;;;;3.13;1.48;;;;;;;16.51;100.00;101655.38;5069858;28;20048;-79
2022/05/07 08:39:25;;;;;;;1.60;1.10;;;;;;;16.46;100.00;101659.03;5044043;28;20037;-79
2022/05/07 08:41:58;;;;;;;1.83;1.20;;;;;;;16.60;100.00;101645.38;5063138;28;20051;-77
2022/05/07 08:44:32;;;;;;;2.10;1.20;;;;;;;16.57;100.00;101656.97;5067721;28;20047;-78
2022/05/07 08:47:05;;;;;;;2.70;1.48;;;;;;;16.71;100.00;101661.69;5058824;28;20037;-79
2022/05/07 08:49:39;;;;;;;3.15;1.42;;;;;;;16.83;100.00;101660.16;5067522;28;20045;-78
2022/05/07 08:52:13;;;;;;;3.28;1.65;;;;;;;16.77;100.00;101658.56;5064671;28;20395;-78
2022/05/07 08:54:47;;;;;;;2.45;1.50;;;;;;;16.66;100.00;101662.59;5057219;28;20048;-78
2022/05/07 08:57:21;;;;;;;3.00;1.60;;;;;;;16.56;100.00;101659.97;5058312;28;20385;-77
2022/05/07 08:59:54;;;;;;;1.80;1.40;;;;;;;16.60;100.00;101656.34;5057398;28;20040;-78
2022/05/07 09:02:27;;;;;;;2.88;1.40;;;;;;;16.67;100.00;101664.25;5070747;28;20050;-79
2022/05/07 09:05:00;;;;;;;4.53;2.00;;;;;;;16.69;100.00;101666.69;5055884;28;20056;-80
2022/05/07 09:07:30;;;;;;;3.33;1.38;;;;;;;16.67;100.00;101662.28;5048446;28;20080;-78
2022/05/07 09:10:11;;;;;;;2.75;1.40;;;;;;;16.85;100.00;101662.59;5062707;28;20044;-79
2022/05/07 09:12:44;;;;;;;2.15;1.30;;;;;;;16.86;100.00;101655.97;5058989;28;20056;-78
2022/05/07 09:15:17;;;;;;;2.38;1.30;;;;;;;16.98;100.00;101666.53;5047265;28;20064;-78
2022/05/07 09:17:50;;;;;;;7.85;4.93;;;;;;;16.96;100.00;101661.34;5045696;28;20428;-78
2022/05/07 09:20:26;;;;;;;2.25;1.20;;;;;;;17.05;100.00;101666.97;5059017;28;20500;-78
2022/05/07 09:23:00;;;;;;;2.33;1.10;;;;;;;17.07;100.00;101666.66;5063770;28;20377;-78
2022/05/07 09:25:30;;;;;;;2.17;1.20;;;;;;;16.99;100.00;101669.00;5046219;28;20045;-79
2022/05/07 09:28:03;;;;;;;3.60;1.52;;;;;;;17.26;100.00;101666.63;5065230;28;20052;-78
2022/05/07 09:30:38;;;;;;;1.70;1.05;;;;;;;17.25;100.00;101665.84;5040721;28;20048;-78
2022/05/07 09:33:11;;;;;;;1.73;1.17;;;;;;;17.39;100.00;101665.06;5062880;28;20048;-78
2022/05/07 09:35:50;;;;;;;2.83;1.10;;;;;;;17.33;100.00;101659.63;5042361;28;20041;-78
2022/05/07 09:38:25;;;;;;;2.97;1.20;;;;;;;17.25;100.00;101651.25;5045001;28;20048;-78
2022/05/07 09:40:58;;;;;;;1.88;1.10;;;;;;;17.53;100.00;101656.84;5063528;28;20061;-78
2022/05/07 09:43:32;;;;;;;2.17;1.10;;;;;;;17.56;100.00;101653.47;5064392;28;20044;-80
2022/05/07 09:46:06;;;;;;;2.53;0.95;;;;;;;17.78;100.00;101653.56;5045936;28;20049;-78
2022/05/07 09:48:37;;;;;;;2.45;1.13;;;;;;;17.82;100.00;101656.56;5067723;28;20048;-78
2022/05/07 09:51:11;;;;;;;2.45;1.10;;;;;;;17.58;100.00;101657.56;5043753;28;20056;-78
2022/05/07 09:59:24;;;;;;;2.15;1.00;;;;;;;18.24;92.54;101651.84;5043941;28;20044;-78
2022/05/07 10:02:10;;;;;;;1.98;1.10;;;;;;;18.23;99.37;101650.25;5041005;28;20059;-78
2022/05/07 10:04:54;;;;;;;2.00;1.15;;;;;;;18.41;98.84;101655.91;5065664;28;20466;-78
2022/05/07 10:07:46;;;;;;;1.50;1.10;;;;;;;18.31;98.42;101654.19;5057325;28;20041;-78
2022/05/07 10:10:25;;;;;;;1.65;1.00;;;;;;;18.30;88.78;101647.88;5059305;28;20051;-78
2022/05/07 10:13:01;;;;;;;1.67;1.10;;;;;;;18.38;92.91;101653.78;5066105;28;20048;-79
2022/05/07 10:15:35;;;;;;;2.13;1.10;;;;;;;18.35;94.51;101650.53;5041331;28;20055;-78
2022/05/07 10:18:14;;;;;;;1.67;0.90;;;;;;;18.72;100.00;101649.72;5061780;28;20040;-78
2022/05/07 10:20:49;;;;;;;7.22;5.07;;;;;;;18.50;95.78;101645.78;5045111;28;20056;-78
2022/05/07 10:23:28;;;;;;;1.50;0.98;;;;;;;18.58;91.93;101647.81;5065367;28;20059;-79
2022/05/07 10:26:04;;;;;;;3.42;1.10;;;;;;;18.23;90.28;101649.41;5054258;28;20055;-79
2022/05/07 10:28:39;;;;;;;1.52;0.90;;;;;;;18.46;93.64;101647.53;5059919;28;20048;-79
2022/05/07 10:31:20;;;;;;;2.75;1.10;;;;;;;18.33;92.58;101647.25;5041980;28;20041;-80
2022/05/07 10:33:54;;;;;;;1.55;1.00;;;;;;;18.59;85.07;101643.94;5039698;28;20057;-78
2022/05/07 10:36:35;;;;;;;2.10;1.00;;;;;;;18.41;88.31;101642.97;5065809;28;20052;-78
2022/05/07 10:39:09;;;;;;;1.17;0.85;;;;;;;18.47;89.78;101647.22;5041711;28;20049;-79
2022/05/07 10:41:47;;;;;;;2.13;0.90;;;;;;;18.12;98.20;101641.38;5052680;28;20812;-78
2022/05/07 10:44:31;;;;;;;2.45;1.20;;;;;;;18.06;100.00;101642.59;5059605;28;20052;-78
2022/05/07 10:47:12;;;;;;;2.85;1.20;;;;;;;17.84;100.00;101644.13;5039304;28;20590;-78
2022/05/07 10:49:53;;;;;;;2.10;1.38;;;;;;;17.82;100.00;101645.53;5060505;28;20044;-79
2022/05/07 10:52:31;;;;;;;2.05;1.20;;;;;;;17.90;100.00;101647.56;5064181;28;20044;-79
2022/05/07 10:55:10;;;;;;;2.95;1.40;;;;;;;17.89;100.00;101645.13;5062658;28;20041;-79
2022/05/07 10:57:46;;;;;;;2.05;1.10;;;;;;;18.28;100.00;101638.28;5060901;28;20056;-78
2022/05/07 11:00:18;;;;;;;2.17;1.20;;;;;;;18.13;98.37;101644.94;5048137;28;20047;-79
2022/05/07 11:02:58;;;;;;;2.80;1.58;;;;;;;18.35;94.67;101635.91;5063512;28;20047;-78
2022/05/07 11:05:31;;;;;;;3.55;1.60;;;;;;;18.95;96.75;101629.31;5045511;28;20060;-79
2022/05/07 11:08:05;;;;;;;2.88;1.45;;;;;;;19.40;100.00;101627.66;5059613;28;20045;-78
2022/05/07 11:10:40;;;;;;;1.85;1.20;;;;;;;19.36;85.73;101624.69;5045822;28;20044;-79
2022/05/07 11:13:12;;;;;;;5.70;1.40;;;;;;;18.76;87.70;101618.44;5062795;28;20048;-78
2022/05/07 11:15:43;;;;;;;2.42;1.35;;;;;;;18.96;95.82;101630.97;5060910;28;20040;-80
2022/05/07 11:18:17;;;;;;;2.30;1.27;;;;;;;19.11;88.07;101628.94;5049502;28;20044;-79
2022/05/07 11:21:01;;;;;;;2.38;1.13;;;;;;;19.13;86.85;101621.16;5057452;28;20049;-78
2022/05/07 11:23:37;;;;;;;4.03;1.13;;;;;;;19.77;90.47;101620.81;5046076;28;20075;-79
2022/05/07 11:26:12;;;;;;;2.33;1.40;;;;;;;19.95;80.98;101629.19;5059624;28;20481;-78
2022/05/07 11:28:48;;;;;;;2.65;1.63;;;;;;;19.83;85.28;101633.41;5059939;28;20067;-79
2022/05/07 11:31:28;;;;;;;2.80;1.50;;;;;;;20.01;85.45;101625.13;5038838;28;20056;-78
2022/05/07 11:34:04;;;;;;;1.52;1.13;;;;;;;19.71;81.24;101633.94;5058342;28;20044;-80
2022/05/07 11:36:38;;;;;;;2.63;1.17;;;;;;;19.36;78.92;101619.16;5059331;28;20071;-79
2022/05/07 11:39:07;;;;;;;2.95;1.20;;;;;;;19.50;76.11;101621.84;5043494;28;20036;-78
2022/05/07 11:41:40;;;;;;;2.17;0.98;;;;;;;19.72;85.71;101618.22;5059251;28;20032;-79
2022/05/07 11:47:23;;;;;;;1.92;1.05;;;;;;;19.70;81.66;101618.50;5054736;28;20036;-79
2022/05/07 11:50:04;;;;;;;1.73;1.30;;;;;;;19.49;78.16;101623.78;5073432;28;20045;-79
2022/05/07 11:52:32;;;;;;;3.10;1.33;;;;;;;19.66;81.80;101623.03;5066941;28;20068;-79
2022/05/07 11:55:07;;;;;;;1.30;1.00;;;;;;;19.09;80.70;101620.97;5064011;28;20051;-79
2022/05/07 11:57:44;;;;;;;2.83;1.35;;;;;;;19.18;86.01;101621.03;5056647;28;20491;-78
2022/05/07 12:00:22;;;;;;;1.25;1.00;;;;;;;19.14;85.85;101620.84;5042031;28;20059;-79
2022/05/07 12:02:57;;;;;;;3.72;2.05;;;;;;;18.83;89.52;101615.25;5062772;28;20067;-78
2022/05/07 12:05:40;;;;;;;4.57;1.55;;;;;;;18.77;89.15;101627.53;5044743;28;20059;-79
2022/05/07 12:08:15;;;;;;;3.40;2.00;;;;;;;18.41;92.88;101628.34;5074332;28;20056;-79
2022/05/07 12:10:50;;;;;;;7.15;2.20;;;;;;;18.50;97.40;101629.25;5047848;28;20044;-79
2022/05/07 12:13:25;;;;;;;2.78;1.70;;;;;;;18.45;97.29;101626.59;5061776;28;20064;-78
2022/05/07 12:18:48;;;;;;;5.30;2.22;;;;;;;18.02;100.00;101630.56;5059755;28;20040;-79
2022/05/07 12:29:48;;;;;;;4.80;2.00;;;;;;;18.04;100.00;101628.31;5055985;28;20051;-78
2022/05/07 12:29:52;;;;;;;3.90;2.00;;;;;;;17.88;100.00;101627.78;5064459;28;20461;-78
2022/05/07 12:32:27;;;;;;;4.53;1.88;;;;;;;17.77;100.00;101624.44;5058463;28;20037;-79
2022/05/07 12:35:01;;;;;;;3.28;1.70;;;;;;;17.96;100.00;101629.03;5060948;28;20040;-79
2022/05/07 12:37:34;;;;;;;3.80;1.65;;;;;;;18.60;100.00;101629.03;5058533;28;20051;-78
2022/05/07 12:40:02;;;;;;;4.10;1.88;;;;;;;18.69;100.00;101618.88;5045710;28;20370;-78
2022/05/07 12:42:36;;;;;;;4.22;1.80;;;;;;;18.67;95.11;101615.63;5065504;28;20049;-79
2022/05/07 12:45:10;;;;;;;4.05;1.70;;;;;;;18.59;100.00;101621.88;5060612;28;20037;-79
2022/05/07 12:47:40;;;;;;;2.55;1.40;;;;;;;18.47;100.00;101616.91;5057292;28;20048;-79
2022/05/07 12:50:13;;;;;;;4.70;1.85;;;;;;;18.65;95.67;101622.56;5041500;28;20064;-79